createdAt,value
2022-08-04T00:00:44.391Z,22.39
2022-08-04T00:01:44.430Z,22.39
2022-08-04T00:02:44.685Z,22.36
2022-08-04T00:03:44.343Z,22.36
2022-08-04T00:04:44.360Z,22.35
2022-08-04T00:05:44.321Z,22.33
2022-08-04T00:06:44.311Z,22.30
2022-08-04T00:07:45.301Z,22.28
2022-08-04T00:08:44.285Z,22.25
2022-08-04T00:09:44.282Z,22.23
2022-08-04T00:10:44.269Z,22.22
2022-08-04T00:11:44.241Z,22.22
2022-08-04T00:12:44.233Z,22.18
2022-08-04T00:13:52.673Z,22.15
2022-08-04T00:14:45.213Z,22.15
2022-08-04T00:15:44.186Z,22.14
2022-08-04T00:16:44.184Z,22.11
2022-08-04T00:17:44.162Z,22.11
2022-08-04T00:18:44.153Z,22.10
2022-08-04T00:19:44.141Z,22.08
2022-08-04T00:20:44.122Z,22.06
2022-08-04T00:21:44.103Z,22.04
2022-08-04T00:22:44.104Z,22.00
2022-08-04T00:24:11.606Z,22.00
2022-08-04T00:24:45.086Z,21.98
2022-08-04T00:25:44.055Z,21.96
2022-08-04T00:26:44.042Z,21.95
2022-08-04T00:27:44.031Z,21.93
2022-08-04T00:28:44.023Z,21.92
2022-08-04T00:29:44.014Z,21.89
2022-08-04T00:30:43.991Z,21.91
2022-08-04T00:31:56.748Z,21.89
2022-08-04T00:32:44.982Z,21.83
2022-08-04T00:33:43.944Z,21.83
2022-08-04T00:34:43.953Z,21.82
2022-08-04T00:35:43.921Z,21.80
2022-08-04T00:36:43.916Z,21.77
2022-08-04T00:37:43.893Z,21.76
2022-08-04T00:38:43.899Z,21.75
2022-08-04T00:39:43.873Z,21.73
2022-08-04T00:40:43.862Z,21.72
2022-08-04T00:41:56.280Z,21.72
2022-08-04T00:42:58.480Z,21.67
2022-08-04T00:43:44.816Z,21.66
2022-08-04T00:44:43.814Z,21.62
2022-08-04T00:46:15.077Z,21.62
2022-08-04T00:46:44.773Z,21.62
2022-08-04T00:47:43.755Z,21.60
2022-08-04T00:48:43.752Z,21.57
2022-08-04T00:49:43.746Z,21.57
2022-08-04T00:50:43.720Z,21.57
2022-08-04T00:51:43.705Z,21.54
2022-08-04T00:52:43.693Z,21.51
2022-08-04T00:53:49.915Z,21.52
2022-08-04T00:54:44.683Z,21.50
2022-08-04T00:55:43.653Z,21.50
2022-08-04T00:56:43.641Z,21.48
2022-08-04T00:57:43.623Z,21.45
2022-08-04T00:58:43.638Z,21.43
2022-08-04T00:59:43.614Z,21.42
2022-08-04T01:00:43.591Z,21.40
2022-08-04T01:01:43.686Z,21.39
2022-08-04T01:02:43.562Z,21.37
2022-08-04T01:03:43.552Z,21.36
2022-08-04T01:04:43.546Z,21.35
2022-08-04T01:05:43.522Z,21.32
2022-08-04T01:06:43.504Z,21.30
2022-08-04T01:07:44.491Z,21.30
2022-08-04T01:08:43.481Z,21.27
2022-08-04T01:09:43.475Z,21.29
2022-08-04T01:10:43.473Z,21.25
2022-08-04T01:11:56.686Z,21.24
2022-08-04T01:12:44.434Z,21.21
2022-08-04T01:13:43.415Z,21.21
2022-08-04T01:14:43.417Z,21.20
2022-08-04T01:16:00.084Z,21.18
2022-08-04T01:16:44.374Z,21.15
2022-08-04T01:17:43.355Z,21.14
2022-08-04T01:18:43.354Z,21.14
2022-08-04T01:19:43.344Z,21.12
2022-08-04T01:20:43.324Z,21.07
2022-08-04T01:21:43.304Z,21.09
2022-08-04T01:22:43.323Z,21.06
2022-08-04T01:23:43.284Z,21.06
2022-08-04T01:24:43.284Z,21.05
2022-08-04T01:25:43.255Z,21.05
2022-08-04T01:26:53.521Z,21.03
2022-08-04T01:27:44.223Z,21.03
2022-08-04T01:28:43.213Z,21.00
2022-08-04T01:29:47.051Z,21.00
2022-08-04T01:30:43.192Z,20.99
2022-08-04T01:31:43.173Z,20.99
2022-08-04T01:32:43.173Z,20.96
2022-08-04T01:34:03.386Z,20.96
2022-08-04T01:34:44.143Z,20.93
2022-08-04T01:35:47.469Z,20.93
2022-08-04T01:36:44.106Z,20.90
2022-08-04T01:37:44.092Z,20.90
2022-08-04T01:38:43.085Z,20.88
2022-08-04T01:39:43.078Z,20.90
2022-08-04T01:40:43.072Z,20.87
2022-08-04T01:41:43.043Z,20.88
2022-08-04T01:42:44.042Z,20.85
2022-08-04T01:43:43.005Z,20.84
2022-08-04T01:44:43.015Z,20.84
2022-08-04T01:45:42.992Z,20.82
2022-08-04T01:46:42.974Z,20.81
2022-08-04T01:47:42.977Z,20.78
2022-08-04T01:48:42.951Z,20.78
2022-08-04T01:49:42.944Z,20.75
2022-08-04T01:50:42.923Z,20.77
2022-08-04T01:51:42.958Z,20.74
2022-08-04T01:52:45.542Z,20.72
2022-08-04T01:53:43.875Z,20.70
2022-08-04T01:54:42.894Z,20.72
2022-08-04T01:55:54.482Z,20.69
2022-08-04T01:56:43.845Z,20.67
2022-08-04T01:57:42.870Z,20.66
2022-08-04T01:58:42.821Z,20.65
2022-08-04T01:59:42.814Z,20.62
2022-08-04T02:00:42.810Z,20.60
2022-08-04T02:01:42.885Z,20.59
2022-08-04T02:02:42.843Z,20.58
2022-08-04T02:04:18.861Z,20.58
2022-08-04T02:04:43.754Z,20.55
2022-08-04T02:06:03.971Z,20.51
2022-08-04T02:06:43.711Z,20.51
2022-08-04T02:07:42.693Z,20.48
2022-08-04T02:08:42.684Z,20.47
2022-08-04T02:09:54.691Z,20.44
2022-08-04T02:10:43.672Z,20.43
2022-08-04T02:11:42.641Z,20.40
2022-08-04T02:12:42.633Z,20.39
2022-08-04T02:13:42.614Z,20.39
2022-08-04T02:14:42.627Z,20.36
2022-08-04T02:15:42.605Z,20.34
2022-08-04T02:16:42.584Z,20.34
2022-08-04T02:17:42.561Z,20.32
2022-08-04T02:18:42.557Z,20.31
2022-08-04T02:19:42.534Z,20.29
2022-08-04T02:20:42.534Z,20.28
2022-08-04T02:21:43.050Z,20.29
2022-08-04T02:22:42.494Z,20.26
2022-08-04T02:23:42.484Z,20.24
2022-08-04T02:24:42.474Z,20.22
2022-08-04T02:25:42.471Z,20.22
2022-08-04T02:26:42.442Z,20.19
2022-08-04T02:27:59.917Z,20.19
2022-08-04T02:28:43.414Z,20.18
2022-08-04T02:29:42.428Z,20.14
2022-08-04T02:30:42.404Z,20.14
2022-08-04T02:31:42.374Z,20.13
2022-08-04T02:32:44.197Z,20.11
2022-08-04T02:33:42.349Z,20.10
2022-08-04T02:34:42.333Z,20.09
2022-08-04T02:35:42.332Z,20.07
2022-08-04T02:36:42.306Z,20.06
2022-08-04T02:37:42.294Z,20.06
2022-08-04T02:38:42.292Z,20.04
2022-08-04T02:39:48.179Z,20.03
2022-08-04T02:40:43.274Z,20.03
2022-08-04T02:41:42.235Z,20.00
2022-08-04T02:42:42.224Z,19.99
2022-08-04T02:43:50.848Z,19.96
2022-08-04T02:44:43.225Z,19.99
2022-08-04T02:45:42.205Z,19.96
2022-08-04T02:46:42.174Z,19.94
2022-08-04T02:48:25.184Z,19.94
2022-08-04T02:48:43.143Z,19.91
2022-08-04T02:49:42.144Z,19.91
2022-08-04T02:50:42.143Z,19.88
2022-08-04T02:51:42.113Z,19.88
2022-08-04T02:52:42.093Z,19.85
2022-08-04T02:53:42.144Z,19.84
2022-08-04T02:54:42.065Z,19.82
2022-08-04T02:55:42.071Z,19.82
2022-08-04T02:56:43.042Z,19.79
2022-08-04T02:57:42.063Z,19.79
2022-08-04T02:58:42.013Z,19.77
2022-08-04T02:59:42.013Z,19.77
2022-08-04T03:00:42.023Z,19.74
2022-08-04T03:01:56.821Z,19.74
2022-08-04T03:02:42.963Z,19.73
2022-08-04T03:03:41.953Z,19.71
2022-08-04T03:04:41.934Z,19.69
2022-08-04T03:05:50.072Z,19.69
2022-08-04T03:06:42.903Z,19.67
2022-08-04T03:07:41.901Z,19.66
2022-08-04T03:08:41.874Z,19.64
2022-08-04T03:09:41.874Z,19.64
2022-08-04T03:10:41.863Z,19.63
2022-08-04T03:11:41.842Z,19.62
2022-08-04T03:12:41.823Z,19.59
2022-08-04T03:13:41.814Z,19.58
2022-08-04T03:14:41.804Z,19.58
2022-08-04T03:15:41.804Z,19.56
2022-08-04T03:16:41.773Z,19.55
2022-08-04T03:17:53.220Z,19.52
2022-08-04T03:18:42.754Z,19.52
2022-08-04T03:19:41.745Z,19.52
2022-08-04T03:20:41.735Z,19.51
2022-08-04T03:21:41.715Z,19.49
2022-08-04T03:22:59.790Z,19.47
2022-08-04T03:23:42.683Z,19.47
2022-08-04T03:24:41.664Z,19.45
2022-08-04T03:25:57.162Z,19.45
2022-08-04T03:26:42.636Z,19.41
2022-08-04T03:27:41.634Z,19.41
2022-08-04T03:28:41.613Z,19.41
2022-08-04T03:29:41.604Z,19.40
2022-08-04T03:30:41.594Z,19.39
2022-08-04T03:31:41.574Z,19.39
2022-08-04T03:32:41.554Z,19.36
2022-08-04T03:33:41.564Z,19.33
2022-08-04T03:34:41.543Z,19.31
2022-08-04T03:35:41.534Z,19.31
2022-08-04T03:36:41.506Z,19.29
2022-08-04T03:37:41.494Z,19.27
2022-08-04T03:38:41.475Z,19.26
2022-08-04T03:39:41.530Z,19.24
2022-08-04T03:40:41.472Z,19.24
2022-08-04T03:41:55.295Z,19.22
2022-08-04T03:42:42.423Z,19.21
2022-08-04T03:43:57.342Z,19.24
2022-08-04T03:44:42.402Z,19.22
2022-08-04T03:45:41.426Z,19.24
2022-08-04T03:46:41.374Z,19.21
2022-08-04T03:47:42.425Z,19.21
2022-08-04T03:48:41.345Z,19.21
2022-08-04T03:49:41.334Z,19.19
2022-08-04T03:50:41.735Z,19.19
2022-08-04T03:51:41.313Z,19.19
2022-08-04T03:52:41.292Z,19.18
2022-08-04T03:53:41.305Z,19.18
2022-08-04T03:54:41.263Z,19.16
2022-08-04T03:55:41.293Z,19.15
2022-08-04T03:56:41.254Z,19.15
2022-08-04T03:57:41.224Z,19.15
2022-08-04T03:58:41.211Z,19.12
2022-08-04T03:59:41.204Z,19.14
2022-08-04T04:00:42.203Z,19.12
2022-08-04T04:02:01.484Z,19.11
2022-08-04T04:02:42.196Z,19.11
2022-08-04T04:03:41.144Z,19.09
2022-08-04T04:04:41.134Z,19.09
2022-08-04T04:05:59.850Z,19.09
2022-08-04T04:06:42.103Z,19.08
2022-08-04T04:07:41.095Z,19.08
2022-08-04T04:08:41.074Z,19.07
2022-08-04T04:09:58.083Z,19.04
2022-08-04T04:10:42.064Z,19.07
2022-08-04T04:11:56.752Z,19.04
2022-08-04T04:12:42.024Z,19.02
2022-08-04T04:13:41.014Z,19.02
2022-08-04T04:14:40.995Z,19.00
2022-08-04T04:15:41.002Z,18.99
2022-08-04T04:16:40.964Z,18.98
2022-08-04T04:17:40.965Z,18.96
2022-08-04T04:18:40.943Z,18.98
2022-08-04T04:19:40.944Z,18.96
2022-08-04T04:20:40.934Z,18.96
2022-08-04T04:21:40.904Z,18.98
2022-08-04T04:22:40.896Z,18.96
2022-08-04T04:23:40.883Z,18.98
2022-08-04T04:24:40.872Z,18.93
2022-08-04T04:25:40.873Z,18.95
2022-08-04T04:26:40.834Z,18.95
2022-08-04T04:27:40.823Z,18.95
2022-08-04T04:28:44.712Z,18.95
2022-08-04T04:29:41.801Z,18.96
2022-08-04T04:30:40.803Z,18.95
2022-08-04T04:31:40.775Z,18.96
2022-08-04T04:32:40.753Z,18.95
2022-08-04T04:33:40.754Z,18.93
2022-08-04T04:34:45.549Z,18.93
2022-08-04T04:35:41.733Z,18.92
2022-08-04T04:36:40.722Z,18.92
2022-08-04T04:37:48.593Z,18.92
2022-08-04T04:38:41.683Z,18.95
2022-08-04T04:39:40.734Z,18.95
2022-08-04T04:40:40.672Z,18.92
2022-08-04T04:41:40.644Z,18.93
2022-08-04T04:42:40.624Z,18.93
2022-08-04T04:43:51.507Z,18.95
2022-08-04T04:44:41.594Z,18.95
2022-08-04T04:45:40.606Z,18.95
2022-08-04T04:46:40.583Z,18.96
2022-08-04T04:48:09.046Z,18.96
2022-08-04T04:48:41.545Z,18.96
2022-08-04T04:49:40.536Z,18.96
2022-08-04T04:50:40.543Z,18.96
2022-08-04T04:51:40.525Z,18.98
2022-08-04T04:52:40.495Z,18.99
2022-08-04T04:53:40.483Z,18.99
2022-08-04T04:54:40.474Z,19.00
2022-08-04T04:55:42.220Z,19.00
2022-08-04T04:56:40.445Z,19.00
2022-08-04T04:57:53.286Z,19.04
2022-08-04T04:58:41.412Z,19.04
2022-08-04T04:59:40.403Z,19.07
2022-08-04T05:00:40.405Z,19.08
2022-08-04T05:01:40.373Z,19.11
2022-08-04T05:02:40.370Z,19.11
2022-08-04T05:03:40.345Z,19.15
2022-08-04T05:04:40.334Z,19.18
2022-08-04T05:05:40.342Z,19.22
2022-08-04T05:06:40.304Z,19.26
2022-08-04T05:07:40.304Z,19.31
2022-08-04T05:08:42.790Z,19.36
2022-08-04T05:09:41.274Z,19.41
2022-08-04T05:10:40.274Z,19.47
2022-08-04T05:11:40.243Z,19.52
2022-08-04T05:14:32.757Z,19.58
2022-08-04T05:14:35.504Z,19.67
2022-08-04T05:14:42.012Z,19.73
2022-08-04T05:15:40.203Z,19.84
2022-08-04T05:16:40.173Z,19.89
2022-08-04T05:17:40.173Z,19.99
2022-08-04T05:18:40.153Z,20.07
2022-08-04T05:19:40.144Z,20.16
2022-08-04T05:20:40.142Z,20.22
2022-08-04T05:21:40.117Z,20.31
2022-08-04T05:22:40.094Z,20.39
2022-08-04T05:23:40.092Z,20.50
2022-08-04T05:24:40.081Z,20.58
2022-08-04T05:25:40.073Z,20.63
2022-08-04T05:26:40.043Z,20.70
2022-08-04T05:27:40.391Z,20.78
2022-08-04T05:28:40.012Z,20.81
2022-08-04T05:29:41.089Z,20.88
2022-08-04T05:30:39.995Z,20.93
2022-08-04T05:31:39.974Z,20.99
2022-08-04T05:32:39.966Z,21.03
2022-08-04T05:33:39.954Z,21.12
2022-08-04T05:34:39.934Z,21.15
2022-08-04T05:36:16.253Z,21.22
2022-08-04T05:36:41.753Z,21.29
2022-08-04T05:37:39.895Z,21.35
2022-08-04T05:38:39.885Z,21.42
2022-08-04T05:39:39.948Z,21.52
2022-08-04T05:40:39.864Z,21.62
2022-08-04T05:41:46.343Z,21.73
2022-08-04T05:42:40.825Z,21.85
2022-08-04T05:43:39.822Z,21.92
2022-08-04T05:44:39.794Z,22.00
2022-08-04T05:45:39.802Z,22.08
2022-08-04T05:46:39.774Z,22.15
2022-08-04T05:47:39.765Z,22.22
2022-08-04T05:48:39.745Z,22.29
2022-08-04T05:49:39.745Z,22.35
2022-08-04T05:50:39.745Z,22.38
2022-08-04T05:51:39.715Z,22.44
2022-08-04T05:52:39.695Z,22.47
2022-08-04T05:53:39.685Z,22.51
2022-08-04T05:54:39.666Z,22.55
2022-08-04T05:55:48.770Z,22.59
2022-08-04T05:56:40.645Z,22.66
2022-08-04T05:57:39.626Z,22.73
2022-08-04T05:58:39.615Z,22.80
2022-08-04T05:59:39.605Z,22.85
2022-08-04T06:00:41.556Z,22.90
2022-08-04T06:01:55.859Z,22.94
2022-08-04T06:02:40.556Z,23.02
2022-08-04T06:03:39.560Z,23.09
2022-08-04T06:04:39.543Z,23.20
2022-08-04T06:05:39.546Z,23.31
2022-08-04T06:06:39.517Z,23.41
2022-08-04T06:08:07.718Z,23.51
2022-08-04T06:08:40.483Z,23.56
2022-08-04T06:09:39.476Z,23.63
2022-08-04T06:10:39.469Z,23.74
2022-08-04T06:12:03.049Z,23.88
2022-08-04T06:12:40.427Z,23.99
2022-08-04T06:13:48.650Z,24.11
2022-08-04T06:14:40.400Z,24.23
2022-08-04T06:15:39.417Z,24.35
2022-08-04T06:16:40.376Z,24.45
2022-08-04T06:19:56.569Z,24.60
2022-08-04T06:19:59.846Z,24.73
2022-08-04T06:20:02.829Z,24.85
2022-08-04T06:20:40.339Z,24.99
2022-08-04T06:21:40.316Z,25.11
2022-08-04T06:22:39.295Z,25.25
2022-08-04T06:23:52.960Z,25.35
2022-08-04T06:24:40.267Z,25.47
2022-08-04T06:25:39.265Z,25.59
2022-08-04T06:26:39.257Z,25.66
2022-08-04T06:27:39.227Z,25.81
2022-08-04T06:28:39.210Z,25.93
2022-08-04T06:29:39.218Z,26.03
2022-08-04T06:30:39.182Z,26.15
2022-08-04T06:32:27.054Z,26.26
2022-08-04T06:32:41.989Z,26.38
2022-08-04T06:33:54.464Z,26.48
2022-08-04T06:34:40.151Z,26.59
2022-08-04T06:35:39.129Z,26.73
2022-08-04T06:36:39.178Z,26.83
2022-08-04T06:37:43.433Z,26.89
2022-08-04T06:38:39.090Z,26.95
2022-08-04T06:39:39.154Z,27.03
2022-08-04T06:40:39.067Z,27.14
2022-08-04T06:41:55.318Z,27.26
2022-08-04T06:42:40.059Z,27.37
2022-08-04T06:43:43.125Z,27.49
2022-08-04T06:44:40.011Z,27.59
2022-08-04T06:45:38.993Z,27.70
2022-08-04T06:46:38.992Z,27.77
2022-08-04T06:47:38.979Z,27.86
2022-08-04T06:48:38.968Z,27.96
2022-08-04T06:49:44.193Z,28.10
2022-08-04T06:51:26.163Z,28.22
2022-08-04T06:51:48.944Z,28.33
2022-08-04T06:52:39.966Z,28.42
2022-08-04T06:53:38.890Z,28.49
2022-08-04T06:54:38.883Z,28.62
2022-08-04T06:55:38.861Z,28.76
2022-08-04T06:56:38.861Z,28.86
2022-08-04T06:57:38.831Z,28.97
2022-08-04T06:58:38.821Z,29.02
2022-08-04T06:59:38.801Z,29.07
2022-08-04T07:00:38.801Z,29.14
2022-08-04T07:01:38.843Z,29.22
2022-08-04T07:02:38.782Z,29.32
2022-08-04T07:03:38.751Z,29.44
2022-08-04T07:04:38.754Z,29.53
2022-08-04T07:05:38.722Z,29.68
2022-08-04T07:06:38.750Z,29.79
2022-08-04T07:07:56.827Z,29.93
2022-08-04T07:08:39.682Z,30.06
2022-08-04T07:09:38.672Z,30.18
2022-08-04T07:10:38.664Z,30.31
2022-08-04T07:11:44.139Z,30.46
2022-08-04T07:12:39.632Z,30.55
2022-08-04T07:13:43.262Z,30.72
2022-08-04T07:14:39.604Z,30.87
2022-08-04T07:15:38.621Z,31.03
2022-08-04T07:16:38.596Z,31.15
2022-08-04T07:17:38.574Z,31.31
2022-08-04T07:18:38.563Z,31.36
2022-08-04T07:19:38.534Z,31.46
2022-08-04T07:20:38.714Z,31.56
2022-08-04T07:21:38.540Z,31.71
2022-08-04T07:22:38.504Z,31.85
2022-08-04T07:23:38.486Z,31.97
2022-08-04T07:24:38.483Z,32.07
2022-08-04T07:26:11.025Z,32.08
2022-08-04T07:26:39.544Z,32.08
2022-08-04T07:27:48.090Z,32.03
2022-08-04T07:28:39.425Z,32.04
2022-08-04T07:29:38.405Z,32.21
2022-08-04T07:30:38.398Z,32.40
2022-08-04T07:31:38.404Z,32.63
2022-08-04T07:32:38.403Z,32.73
2022-08-04T07:33:38.355Z,32.75
2022-08-04T07:34:38.349Z,32.85
2022-08-04T07:36:05.986Z,32.95
2022-08-04T07:36:50.485Z,33.04
2022-08-04T07:37:40.105Z,33.17
2022-08-04T07:38:51.142Z,33.28
2022-08-04T07:39:48.240Z,33.32
2022-08-04T07:40:39.279Z,33.34
2022-08-04T07:41:38.402Z,33.34
2022-08-04T07:42:38.246Z,33.31
2022-08-04T07:43:38.226Z,33.27
2022-08-04T07:44:38.218Z,33.34
2022-08-04T07:45:38.197Z,33.49
2022-08-04T07:46:38.212Z,33.58
2022-08-04T07:47:38.177Z,33.65
2022-08-04T07:48:38.166Z,33.77
2022-08-04T07:49:56.266Z,33.83
2022-08-04T07:50:39.168Z,33.92
2022-08-04T07:51:38.159Z,34.06
2022-08-04T07:52:39.937Z,34.27
2022-08-04T07:53:55.372Z,34.51
2022-08-04T07:54:39.103Z,34.73
2022-08-04T07:55:38.072Z,34.88
2022-08-04T07:56:38.082Z,35.05
2022-08-04T07:57:41.270Z,35.22
2022-08-04T07:58:38.040Z,35.39
2022-08-04T07:59:38.038Z,35.58
2022-08-04T08:00:38.011Z,35.68
2022-08-04T08:01:38.009Z,35.76
2022-08-04T08:02:38.169Z,35.79
2022-08-04T08:03:38.053Z,35.88
2022-08-04T08:04:37.968Z,36.04
2022-08-04T08:06:17.703Z,36.12
2022-08-04T08:06:43.164Z,36.18
2022-08-04T08:07:38.031Z,36.31
2022-08-04T08:08:38.922Z,36.31
2022-08-04T08:09:37.901Z,36.35
2022-08-04T08:10:37.891Z,36.46
2022-08-04T08:12:36.517Z,36.64
2022-08-04T08:12:51.411Z,36.80
2022-08-04T08:13:38.853Z,36.86
2022-08-04T08:14:37.845Z,36.89
2022-08-04T08:15:37.815Z,37.02
2022-08-04T08:16:37.832Z,37.15
2022-08-04T08:17:59.429Z,37.33
2022-08-04T08:18:38.794Z,37.49
2022-08-04T08:19:37.771Z,37.68
2022-08-04T08:20:38.661Z,37.87
2022-08-04T08:21:59.696Z,38.01
2022-08-04T08:22:38.863Z,38.14
2022-08-04T08:23:37.717Z,38.19
2022-08-04T08:24:37.713Z,38.24
2022-08-04T08:25:37.695Z,38.31
2022-08-04T08:26:37.695Z,38.38
2022-08-04T08:27:37.664Z,38.43
2022-08-04T08:28:37.663Z,38.49
2022-08-04T08:29:37.644Z,38.40
2022-08-04T08:30:37.635Z,38.46
2022-08-04T08:31:58.281Z,38.61
2022-08-04T08:32:38.606Z,38.82
2022-08-04T08:33:37.595Z,39.02
2022-08-04T08:34:37.585Z,39.19
2022-08-04T08:35:39.661Z,39.36
2022-08-04T08:36:38.582Z,39.52
2022-08-04T08:37:40.333Z,39.59
2022-08-04T08:38:37.526Z,39.51
2022-08-04T08:39:37.593Z,39.52
2022-08-04T08:40:40.564Z,39.56
2022-08-04T08:41:37.496Z,39.68
2022-08-04T08:42:37.570Z,39.83
2022-08-04T08:44:04.351Z,39.97
2022-08-04T08:44:38.458Z,40.15
2022-08-04T08:45:37.445Z,40.26
2022-08-04T08:46:48.875Z,40.30
2022-08-04T08:47:58.505Z,40.43
2022-08-04T08:48:38.398Z,40.53
2022-08-04T08:50:03.031Z,40.62
2022-08-04T08:50:38.374Z,40.65
2022-08-04T08:51:37.369Z,40.69
2022-08-04T08:52:57.311Z,40.80
2022-08-04T08:53:38.328Z,40.91
2022-08-04T08:54:37.330Z,41.03
2022-08-04T08:55:37.319Z,41.09
2022-08-04T08:56:37.329Z,40.99
2022-08-04T08:57:40.341Z,41.00
2022-08-04T08:58:38.280Z,41.09
2022-08-04T08:59:37.270Z,41.14
2022-08-04T09:00:37.261Z,41.22
2022-08-04T09:01:37.334Z,41.34
2022-08-04T09:02:37.238Z,41.47
2022-08-04T09:03:37.239Z,41.59
2022-08-04T09:04:37.203Z,41.72
2022-08-04T09:05:37.194Z,41.78
2022-08-04T09:06:37.220Z,41.77
2022-08-04T09:07:37.239Z,41.83
2022-08-04T09:08:37.161Z,41.77
2022-08-04T09:09:37.191Z,41.70
2022-08-04T09:10:37.140Z,41.62
2022-08-04T09:11:37.133Z,41.55
2022-08-04T09:12:37.111Z,41.45
2022-08-04T09:13:37.097Z,41.38
2022-08-04T09:14:37.082Z,41.37
2022-08-04T09:15:37.063Z,41.44
2022-08-04T09:16:37.171Z,41.43
2022-08-04T09:17:37.033Z,41.44
2022-08-04T09:18:37.104Z,41.49
2022-08-04T09:19:39.065Z,41.53
2022-08-04T09:20:37.015Z,41.65
2022-08-04T09:21:37.007Z,41.85
2022-08-04T09:22:36.991Z,42.02
2022-08-04T09:23:36.967Z,42.09
2022-08-04T09:24:37.278Z,42.25
2022-08-04T09:25:37.042Z,42.35
2022-08-04T09:26:36.952Z,42.48
2022-08-04T09:27:36.994Z,42.63
2022-08-04T09:28:53.504Z,42.57
2022-08-04T09:29:37.905Z,42.60
2022-08-04T09:30:36.885Z,42.63
2022-08-04T09:31:52.974Z,42.66
2022-08-04T09:32:37.866Z,42.60
2022-08-04T09:33:44.454Z,42.60
2022-08-04T09:34:37.839Z,42.67
2022-08-04T09:35:36.860Z,42.84
2022-08-04T09:36:36.835Z,42.94
2022-08-04T09:37:45.570Z,42.97
2022-08-04T09:38:37.796Z,43.04
2022-08-04T09:39:36.852Z,43.10
2022-08-04T09:40:53.232Z,43.20
2022-08-04T09:41:48.525Z,43.26
2022-08-04T09:42:37.745Z,43.35
2022-08-04T09:44:42.342Z,43.38
2022-08-04T09:44:50.725Z,43.41
2022-08-04T09:45:42.368Z,43.31
2022-08-04T09:46:37.716Z,43.26
2022-08-04T09:47:39.570Z,43.24
2022-08-04T09:48:36.674Z,43.23
2022-08-04T09:49:36.679Z,43.27
2022-08-04T09:50:36.656Z,43.20
2022-08-04T09:51:59.016Z,43.28
2022-08-04T09:52:37.650Z,43.26
2022-08-04T09:53:36.610Z,43.35
2022-08-04T09:54:36.600Z,43.45
2022-08-04T09:55:36.591Z,43.57
2022-08-04T09:56:37.616Z,43.64
2022-08-04T09:57:36.561Z,43.79
2022-08-04T09:58:36.551Z,43.87
2022-08-04T09:59:36.531Z,43.95
2022-08-04T10:00:40.692Z,43.96
2022-08-04T10:01:36.592Z,43.95
2022-08-04T10:02:36.612Z,43.94
2022-08-04T10:03:36.660Z,43.87
2022-08-04T10:04:36.487Z,43.79
2022-08-04T10:05:36.452Z,43.60
2022-08-04T10:06:36.490Z,43.49
2022-08-04T10:07:36.443Z,43.46
2022-08-04T10:08:36.435Z,43.46
2022-08-04T10:09:36.427Z,43.54
2022-08-04T10:10:36.442Z,43.55
2022-08-04T10:11:36.393Z,43.57
2022-08-04T10:12:37.403Z,43.46
2022-08-04T10:13:36.381Z,43.42
2022-08-04T10:14:36.354Z,43.30
2022-08-04T10:15:36.354Z,43.07
2022-08-04T10:16:36.344Z,42.94
2022-08-04T10:17:36.334Z,42.92
2022-08-04T10:18:36.312Z,42.88
2022-08-04T10:19:36.307Z,42.81
2022-08-04T10:20:45.764Z,42.69
2022-08-04T10:21:37.266Z,42.47
2022-08-04T10:22:49.986Z,42.25
2022-08-04T10:23:55.097Z,42.14
2022-08-04T10:24:37.235Z,42.13
2022-08-04T10:26:03.262Z,42.10
2022-08-04T10:26:37.220Z,42.06
2022-08-04T10:27:36.256Z,42.06
2022-08-04T10:28:36.379Z,42.13
2022-08-04T10:29:36.222Z,42.24
2022-08-04T10:30:36.177Z,42.36
2022-08-04T10:31:36.203Z,42.53
2022-08-04T10:32:39.973Z,42.72
2022-08-04T10:33:37.127Z,42.72
2022-08-04T10:34:36.127Z,42.78
2022-08-04T10:35:36.097Z,42.82
2022-08-04T10:36:36.095Z,42.81
2022-08-04T10:37:59.026Z,42.81
2022-08-04T10:38:37.068Z,42.86
2022-08-04T10:39:43.354Z,42.76
2022-08-04T10:40:37.072Z,42.62
2022-08-04T10:41:36.059Z,42.48
2022-08-04T10:42:36.031Z,42.16
2022-08-04T10:43:36.099Z,41.88
2022-08-04T10:44:41.921Z,41.62
2022-08-04T10:45:36.990Z,41.36
2022-08-04T10:46:35.998Z,41.12
2022-08-04T10:47:35.965Z,41.10
2022-08-04T10:48:36.003Z,41.44
2022-08-04T10:49:35.940Z,41.57
2022-08-04T10:50:35.920Z,41.82
2022-08-04T10:51:57.699Z,41.95
2022-08-04T10:52:36.912Z,41.95
2022-08-04T10:53:35.898Z,41.97
2022-08-04T10:54:35.912Z,42.09
2022-08-04T10:56:07.110Z,42.12
2022-08-04T10:56:36.855Z,42.12
2022-08-04T10:57:35.841Z,42.13
2022-08-04T10:58:48.549Z,42.21
2022-08-04T10:59:36.813Z,42.35
2022-08-04T11:00:35.810Z,42.43
2022-08-04T11:02:02.062Z,42.29
2022-08-04T11:02:36.837Z,42.06
2022-08-04T11:03:35.763Z,41.66
2022-08-04T11:04:35.771Z,41.41
2022-08-04T11:05:44.169Z,41.18
2022-08-04T11:06:36.727Z,40.91
2022-08-04T11:07:35.727Z,40.91
2022-08-04T11:08:35.712Z,41.02
2022-08-04T11:09:35.695Z,41.02
2022-08-04T11:10:35.681Z,40.99
2022-08-04T11:12:01.622Z,41.03
2022-08-04T11:12:36.662Z,40.97
2022-08-04T11:13:35.635Z,40.99
2022-08-04T11:14:35.638Z,40.96
2022-08-04T11:15:35.616Z,40.91
2022-08-04T11:16:35.597Z,40.87
2022-08-04T11:17:35.607Z,40.82
2022-08-04T11:18:35.572Z,40.81
2022-08-04T11:19:44.891Z,40.85
2022-08-04T11:20:36.864Z,40.90
2022-08-04T11:21:35.623Z,40.96
2022-08-04T11:22:35.546Z,40.95
2022-08-04T11:23:35.526Z,40.91
2022-08-04T11:24:35.507Z,40.84
2022-08-04T11:25:35.496Z,40.78
2022-08-04T11:26:35.477Z,40.75
2022-08-04T11:27:35.477Z,40.68
2022-08-04T11:28:35.451Z,40.46
2022-08-04T11:29:35.438Z,40.30
2022-08-04T11:30:35.420Z,40.15
2022-08-04T11:31:35.448Z,40.08
2022-08-04T11:32:35.409Z,39.99
2022-08-04T11:33:35.393Z,39.92
2022-08-04T11:34:35.378Z,39.94
2022-08-04T11:35:35.380Z,39.94
2022-08-04T11:36:35.361Z,39.93
2022-08-04T11:37:35.388Z,39.97
2022-08-04T11:38:35.331Z,40.05
2022-08-04T11:39:35.443Z,40.11
2022-08-04T11:40:35.319Z,40.16
2022-08-04T11:41:35.318Z,40.27
2022-08-04T11:42:35.291Z,40.27
2022-08-04T11:44:02.837Z,40.27
2022-08-04T11:44:36.261Z,40.30
2022-08-04T11:45:35.251Z,40.31
2022-08-04T11:46:35.241Z,40.40
2022-08-04T11:47:35.303Z,40.47
2022-08-04T11:48:35.292Z,40.51
2022-08-04T11:49:56.734Z,40.56
2022-08-04T11:50:36.190Z,40.61
2022-08-04T11:51:35.217Z,40.68
2022-08-04T11:52:35.211Z,40.70
2022-08-04T11:53:36.807Z,40.70
2022-08-04T11:54:35.182Z,40.73
2022-08-04T11:56:07.656Z,40.77
2022-08-04T11:56:37.849Z,40.73
2022-08-04T11:57:35.727Z,40.75
2022-08-04T11:58:35.094Z,40.70
2022-08-04T11:59:35.437Z,40.66
2022-08-04T12:00:35.064Z,40.65
2022-08-04T12:01:35.077Z,40.58
2022-08-04T12:02:35.177Z,40.54
2022-08-04T12:03:37.566Z,40.47
2022-08-04T12:04:35.030Z,40.46
2022-08-04T12:05:36.737Z,40.40
2022-08-04T12:06:34.996Z,40.31
2022-08-04T12:07:39.009Z,40.18
2022-08-04T12:08:35.976Z,40.12
2022-08-04T12:09:34.956Z,40.06
2022-08-04T12:10:41.080Z,40.00
2022-08-04T12:11:35.939Z,39.90
2022-08-04T12:12:34.948Z,39.78
2022-08-04T12:13:34.913Z,39.75
2022-08-04T12:14:34.897Z,39.77
2022-08-04T12:15:34.899Z,39.83
2022-08-04T12:16:34.871Z,39.93
2022-08-04T12:17:52.327Z,39.96
2022-08-04T12:18:35.850Z,39.94
2022-08-04T12:19:58.630Z,39.99
2022-08-04T12:20:40.569Z,39.94
2022-08-04T12:21:35.842Z,39.96
2022-08-04T12:22:34.801Z,39.99
2022-08-04T12:23:34.790Z,39.99
2022-08-04T12:24:34.781Z,40.02
2022-08-04T12:25:34.782Z,39.99
2022-08-04T12:26:34.741Z,39.99
2022-08-04T12:27:34.762Z,39.99
2022-08-04T12:28:59.570Z,39.96
2022-08-04T12:29:35.747Z,39.92
2022-08-04T12:31:00.426Z,39.86
2022-08-04T12:31:35.700Z,39.77
2022-08-04T12:32:34.704Z,39.70
2022-08-04T12:34:03.353Z,39.71
2022-08-04T12:34:35.653Z,39.75
2022-08-04T12:35:34.640Z,39.78
2022-08-04T12:36:34.641Z,39.78
2022-08-04T12:37:34.633Z,39.83
2022-08-04T12:38:34.622Z,39.85
2022-08-04T12:39:34.652Z,39.85
2022-08-04T12:40:34.617Z,39.86
2022-08-04T12:41:36.019Z,39.92
2022-08-04T12:42:34.557Z,39.96
2022-08-04T12:43:34.534Z,40.04
2022-08-04T12:44:37.301Z,40.06
2022-08-04T12:45:34.517Z,40.05
2022-08-04T12:46:34.498Z,40.09
2022-08-04T12:47:34.524Z,40.11
2022-08-04T12:48:34.483Z,40.11
2022-08-04T12:49:34.501Z,40.16
2022-08-04T12:50:34.473Z,40.16
2022-08-04T12:52:07.041Z,40.20
2022-08-04T12:53:35.424Z,40.21